Time;durP1;ratioP1;P1;durP2;ratioP2;P2;SDS_P1;SDS_P2;PMS_P1;PMS_P2;Temp;Humidity;BMP_temperature;BMP_pressure;BME280_temperature;BME280_humidity;BME280_pressure;Samples;Min_cycle;Max_cycle;Signal;HPM_P1;HPM_P2
2021/03/05 00:00:02;;;;;;;11.93;9.60;;;6.80;99.90;;;;;;5053807;28;20416;-66
2021/03/05 00:02:28;;;;;;;14.23;11.33;;;6.80;99.90;;;;;;5053430;28;20169;-69
2021/03/05 00:04:53;;;;;;;13.60;10.90;;;6.70;99.90;;;;;;5053876;28;20998;-66
2021/03/05 00:07:19;;;;;;;15.10;11.37;;;6.80;99.90;;;;;;5053527;28;20178;-68
2021/03/05 00:09:45;;;;;;;16.10;12.03;;;6.90;99.90;;;;;;5052201;28;20167;-68
2021/03/05 00:12:13;;;;;;;17.90;11.97;;;7.00;99.90;;;;;;5053668;28;20238;-69
2021/03/05 00:14:39;;;;;;;17.20;12.17;;;7.00;99.90;;;;;;5035448;28;20190;-68
2021/03/05 00:17:05;;;;;;;16.57;12.57;;;7.00;99.90;;;;;;5049659;28;20479;-67
2021/03/05 00:19:31;;;;;;;15.70;11.27;;;6.90;99.90;;;;;;5050637;28;20449;-67
2021/03/05 00:21:56;;;;;;;17.70;12.27;;;6.80;99.90;;;;;;5053072;28;20420;-66
2021/03/05 00:24:22;;;;;;;16.77;12.37;;;6.80;99.90;;;;;;5053405;28;20182;-67
2021/03/05 00:26:47;;;;;;;18.50;13.23;;;6.60;99.90;;;;;;5038187;28;20176;-66
2021/03/05 00:29:13;;;;;;;18.00;12.83;;;6.50;99.90;;;;;;5033381;28;20543;-65
2021/03/05 00:31:39;;;;;;;17.87;12.83;;;6.50;99.90;;;;;;5035250;28;20180;-66
2021/03/05 00:34:04;;;;;;;18.77;12.17;;;6.60;99.90;;;;;;5046524;28;20184;-66
2021/03/05 00:36:30;;;;;;;16.90;11.83;;;6.50;99.90;;;;;;5015473;28;20225;-66
2021/03/05 00:38:55;;;;;;;18.10;12.70;;;6.50;99.90;;;;;;5033189;28;20230;-67
2021/03/05 00:41:21;;;;;;;14.50;10.83;;;6.60;99.90;;;;;;5050032;28;20218;-68
2021/03/05 00:43:47;;;;;;;15.07;11.23;;;6.60;99.90;;;;;;5053312;28;20292;-67
2021/03/05 00:46:12;;;;;;;18.53;11.90;;;6.60;99.90;;;;;;5052806;28;20171;-68
2021/03/05 00:48:38;;;;;;;17.57;11.00;;;6.60;99.90;;;;;;5052908;28;20183;-68
2021/03/05 00:51:04;;;;;;;19.70;12.33;;;6.60;99.90;;;;;;5052877;28;20258;-68
2021/03/05 00:53:29;;;;;;;20.30;12.70;;;6.60;99.90;;;;;;5052634;28;20625;-67
2021/03/05 00:55:55;;;;;;;22.30;12.60;;;6.70;99.90;;;;;;5052549;28;20417;-68
2021/03/05 00:58:21;;;;;;;19.67;12.43;;;6.70;99.90;;;;;;5052790;28;20716;-67
2021/03/05 01:00:47;;;;;;;19.17;12.67;;;6.70;99.90;;;;;;5052535;28;20183;-67
2021/03/05 01:03:12;;;;;;;20.20;11.60;;;6.60;99.90;;;;;;5052620;28;20186;-66
2021/03/05 01:05:38;;;;;;;21.87;13.80;;;6.60;99.90;;;;;;5051800;28;20518;-66
2021/03/05 01:08:05;;;;;;;19.50;13.03;;;6.60;99.90;;;;;;5052485;28;20633;-66
2021/03/05 01:10:30;;;;;;;20.67;14.03;;;6.50;99.90;;;;;;5052426;28;20171;-68
2021/03/05 01:12:57;;;;;;;20.40;13.20;;;6.40;99.90;;;;;;5052537;28;21594;-66
2021/03/05 01:15:22;;;;;;;24.73;14.27;;;6.40;99.90;;;;;;5052389;28;20529;-68
2021/03/05 01:17:48;;;;;;;23.73;13.43;;;6.40;99.90;;;;;;5052379;28;20504;-67
2021/03/05 01:20:19;;;;;;;19.40;12.60;;;6.30;99.90;;;;;;5052292;28;20187;-67
2021/03/05 01:22:45;;;;;;;22.27;13.63;;;6.50;99.90;;;;;;5051839;28;20178;-66
2021/03/05 01:25:15;;;;;;;23.80;13.73;;;6.40;99.90;;;;;;5051954;28;20421;-66
2021/03/05 01:27:41;;;;;;;21.53;13.13;;;6.40;99.90;;;;;;5052219;28;20641;-69
2021/03/05 01:30:07;;;;;;;24.07;13.87;;;6.30;99.90;;;;;;5052186;28;20440;-68
2021/03/05 01:32:34;;;;;;;21.80;13.23;;;6.30;99.90;;;;;;5052144;28;20187;-68
2021/03/05 01:35:00;;;;;;;24.60;14.47;;;6.30;99.90;;;;;;5051808;28;20433;-66
2021/03/05 01:37:26;;;;;;;19.43;13.40;;;6.30;99.90;;;;;;5051936;28;20421;-67
2021/03/05 01:39:52;;;;;;;21.27;13.73;;;6.30;99.90;;;;;;5052371;28;20442;-66
2021/03/05 01:42:18;;;;;;;20.57;12.70;;;6.20;99.90;;;;;;5051913;28;21005;-70
2021/03/05 01:44:43;;;;;;;20.33;12.87;;;6.20;99.90;;;;;;5052070;28;20203;-66
2021/03/05 01:47:09;;;;;;;19.30;12.63;;;6.20;99.90;;;;;;5051918;28;20635;-67
2021/03/05 01:49:35;;;;;;;19.07;12.53;;;6.10;99.90;;;;;;5051725;28;20175;-68
2021/03/05 01:52:01;;;;;;;16.80;11.70;;;6.10;99.90;;;;;;5051727;28;20649;-66
2021/03/05 01:54:26;;;;;;;20.17;12.77;;;6.10;99.90;;;;;;5051657;28;20421;-67
2021/03/05 01:56:52;;;;;;;19.30;12.60;;;6.10;99.90;;;;;;5051726;28;20187;-68
2021/03/05 01:59:25;;;;;;;19.10;12.70;;;6.10;99.90;;;;;;5051806;28;20281;-66
2021/03/05 02:01:51;;;;;;;18.63;12.93;;;6.10;99.90;;;;;;5051708;28;20410;-65
2021/03/05 02:04:17;;;;;;;18.00;11.47;;;6.10;99.90;;;;;;5051598;28;20769;-68
2021/03/05 02:06:42;;;;;;;16.43;11.47;;;6.00;99.90;;;;;;5051505;28;20179;-68
2021/03/05 02:09:08;;;;;;;17.77;11.07;;;6.00;99.90;;;;;;5051384;28;20179;-68
2021/03/05 02:11:34;;;;;;;18.33;12.20;;;6.00;99.90;;;;;;5051534;28;20167;-66
2021/03/05 02:14:04;;;;;;;18.77;12.10;;;6.10;99.90;;;;;;5051114;28;20187;-67
2021/03/05 02:16:41;;;;;;;15.33;11.60;;;6.00;99.90;;;;;;5051387;28;20409;-68
2021/03/05 02:19:40;;;;;;;18.17;10.93;;;6.00;99.90;;;;;;5048982;28;20456;-67
2021/03/05 02:22:45;;;;;;;16.87;11.53;;;6.00;99.90;;;;;;5004261;28;20424;-66
2021/03/05 02:25:36;;;;;;;22.13;15.30;;;6.00;99.90;;;;;;5019312;28;20429;-66
2021/03/05 02:28:48;;;;;;;18.70;12.57;;;6.00;99.90;;;;;;5050836;28;20533;-66
2021/03/05 02:31:22;;;;;;;18.20;12.27;;;6.00;99.90;;;;;;5050579;28;20418;-65
2021/03/05 02:33:56;;;;;;;18.03;11.70;;;6.00;99.90;;;;;;5050747;28;20495;-67
2021/03/05 02:36:41;;;;;;;19.47;12.13;;;6.00;99.90;;;;;;5051001;28;20428;-69
2021/03/05 02:39:15;;;;;;;17.40;10.70;;;6.10;99.90;;;;;;5051006;28;20449;-68
2021/03/05 02:41:45;;;;;;;17.70;11.30;;;6.20;99.90;;;;;;5049818;28;20441;-68
2021/03/05 02:44:20;;;;;;;17.73;11.17;;;6.20;99.90;;;;;;5050258;28;20406;-67
2021/03/05 02:46:45;;;;;;;15.90;10.83;;;6.10;99.90;;;;;;5048191;28;20767;-67
2021/03/05 02:49:17;;;;;;;17.30;11.10;;;6.10;99.90;;;;;;5050605;28;20426;-68
2021/03/05 02:51:45;;;;;;;15.57;10.67;;;6.10;99.90;;;;;;5050355;28;20187;-69
2021/03/05 02:54:13;;;;;;;16.13;11.63;;;6.00;99.90;;;;;;5050602;28;20443;-65
2021/03/05 02:56:39;;;;;;;15.40;10.97;;;6.10;99.90;;;;;;5045393;28;20461;-67
2021/03/05 02:59:07;;;;;;;16.97;11.27;;;6.20;99.90;;;;;;5030273;28;20476;-68
2021/03/05 03:01:34;;;;;;;18.57;11.90;;;6.30;99.90;;;;;;5040027;28;20418;-67
2021/03/05 03:04:03;;;;;;;15.57;10.77;;;6.30;99.90;;;;;;5050122;28;20771;-68
2021/03/05 03:06:30;;;;;;;14.83;11.13;;;6.30;99.90;;;;;;5039556;28;20901;-68
2021/03/05 03:08:58;;;;;;;16.83;10.70;;;6.30;99.90;;;;;;5030883;28;20422;-67
2021/03/05 03:11:25;;;;;;;17.73;11.33;;;6.30;99.90;;;;;;5030394;28;20776;-69
2021/03/05 03:13:51;;;;;;;14.43;10.77;;;6.30;99.90;;;;;;5036795;28;20491;-68
2021/03/05 03:16:18;;;;;;;16.73;11.30;;;6.30;99.90;;;;;;5041678;28;20437;-67
2021/03/05 03:18:45;;;;;;;14.97;10.87;;;6.30;99.90;;;;;;5041553;28;20939;-69
2021/03/05 03:21:12;;;;;;;16.83;10.10;;;6.30;99.90;;;;;;5045906;28;20471;-68
2021/03/05 03:23:40;;;;;;;14.10;9.63;;;6.40;99.90;;;;;;5046989;28;20874;-66
2021/03/05 03:26:07;;;;;;;15.13;10.37;;;6.40;99.90;;;;;;5030321;28;20437;-66
2021/03/05 03:28:34;;;;;;;15.10;10.40;;;6.40;99.90;;;;;;5029507;28;20533;-69
2021/03/05 03:31:02;;;;;;;14.17;10.50;;;6.40;99.90;;;;;;5036474;28;20912;-66
2021/03/05 03:33:28;;;;;;;14.33;10.37;;;6.30;99.90;;;;;;5049682;28;20452;-69
2021/03/05 03:35:53;;;;;;;14.70;10.80;;;6.30;99.90;;;;;;5039812;28;20411;-67
2021/03/05 03:38:21;;;;;;;14.50;10.50;;;6.30;99.90;;;;;;5030016;28;20196;-66
2021/03/05 03:41:01;;;;;;;16.13;10.43;;;6.30;99.90;;;;;;5019882;28;20273;-67
2021/03/05 03:43:33;;;;;;;17.83;10.87;;;6.30;99.90;;;;;;5029934;28;20417;-65
2021/03/05 03:45:59;;;;;;;14.80;10.33;;;6.40;99.90;;;;;;5029862;28;20479;-67
2021/03/05 03:48:26;;;;;;;17.33;11.03;;;6.50;99.90;;;;;;5029790;28;20438;-68
2021/03/05 03:51:09;;;;;;;14.33;10.83;;;6.40;99.90;;;;;;5029427;28;20925;-67
2021/03/05 03:53:37;;;;;;;16.07;10.40;;;6.40;99.90;;;;;;5028708;28;20407;-68
2021/03/05 03:56:08;;;;;;;16.83;10.30;;;6.20;99.90;;;;;;5029486;28;20418;-67
2021/03/05 03:58:35;;;;;;;14.13;10.03;;;6.10;99.90;;;;;;5029531;28;20461;-68
2021/03/05 04:01:07;;;;;;;15.13;10.50;;;6.20;99.90;;;;;;5029316;28;20414;-66
2021/03/05 04:03:35;;;;;;;15.60;10.30;;;6.10;99.90;;;;;;5028936;28;20415;-68
2021/03/05 04:06:03;;;;;;;14.00;10.00;;;6.20;99.90;;;;;;5028791;28;20468;-69
2021/03/05 04:08:30;;;;;;;13.63;10.07;;;6.10;99.90;;;;;;5029755;28;20429;-66
2021/03/05 04:10:56;;;;;;;21.30;11.63;;;6.10;99.90;;;;;;5030796;28;20415;-68
2021/03/05 04:13:22;;;;;;;17.77;11.33;;;6.10;99.90;;;;;;5030396;28;20484;-67
2021/03/05 04:15:49;;;;;;;15.93;11.33;;;6.10;99.90;;;;;;5030583;28;20587;-68
2021/03/05 04:18:15;;;;;;;17.97;11.27;;;6.10;99.90;;;;;;5030400;28;20469;-66
2021/03/05 04:20:42;;;;;;;17.03;11.60;;;6.10;99.90;;;;;;5030266;28;20418;-67
2021/03/05 04:23:08;;;;;;;15.63;10.83;;;6.20;99.90;;;;;;5030523;28;20175;-68
2021/03/05 04:25:34;;;;;;;13.57;10.27;;;6.10;99.90;;;;;;5030366;28;20935;-68
2021/03/05 04:28:00;;;;;;;16.13;10.10;;;6.00;99.90;;;;;;5030698;28;20407;-66
2021/03/05 04:30:26;;;;;;;15.20;10.27;;;6.00;99.90;;;;;;5030355;28;20184;-68
2021/03/05 04:32:52;;;;;;;18.37;11.87;;;6.00;99.90;;;;;;5030407;28;20452;-68
2021/03/05 04:35:18;;;;;;;16.33;10.97;;;6.00;99.90;;;;;;5030140;28;20509;-68
2021/03/05 04:37:43;;;;;;;17.77;11.37;;;5.90;99.90;;;;;;5030584;28;20171;-66
2021/03/05 04:40:10;;;;;;;19.67;11.50;;;6.00;99.90;;;;;;5030552;28;20731;-68
2021/03/05 04:42:37;;;;;;;18.23;11.83;;;6.10;99.90;;;;;;5033457;28;20263;-67
2021/03/05 04:45:04;;;;;;;17.43;11.70;;;6.00;99.90;;;;;;5034225;28;20414;-68
2021/03/05 04:47:30;;;;;;;19.77;12.30;;;6.00;99.90;;;;;;5033887;28;20896;-68
2021/03/05 04:49:55;;;;;;;17.50;11.83;;;6.00;99.90;;;;;;5033791;28;20442;-67
2021/03/05 04:52:21;;;;;;;21.80;12.47;;;6.10;99.90;;;;;;5033616;28;20258;-68
2021/03/05 04:54:47;;;;;;;20.43;13.00;;;6.00;99.90;;;;;;5033456;28;20184;-68
2021/03/05 04:57:12;;;;;;;17.77;12.33;;;6.00;99.90;;;;;;5033623;28;20187;-65
2021/03/05 04:59:38;;;;;;;18.40;12.80;;;6.20;99.90;;;;;;5033230;28;20277;-68
2021/03/05 05:02:04;;;;;;;21.17;13.00;;;6.20;99.90;;;;;;5033216;28;20176;-68
2021/03/05 05:04:29;;;;;;;22.37;12.83;;;6.20;99.90;;;;;;5033709;28;20178;-67
2021/03/05 05:06:55;;;;;;;22.63;13.27;;;6.10;99.90;;;;;;5033457;28;20261;-69
2021/03/05 05:09:21;;;;;;;20.20;13.03;;;6.10;99.90;;;;;;5033354;28;20184;-67
2021/03/05 05:11:47;;;;;;;23.87;14.53;;;6.00;99.90;;;;;;5019915;28;20283;-66
2021/03/05 05:14:13;;;;;;;21.47;13.93;;;6.00;99.90;;;;;;5033072;28;20414;-68
2021/03/05 05:16:39;;;;;;;27.00;15.13;;;6.10;99.90;;;;;;5033457;28;20414;-67
2021/03/05 05:19:05;;;;;;;24.63;14.33;;;6.10;99.90;;;;;;5032784;28;20199;-68
2021/03/05 05:21:31;;;;;;;23.50;14.57;;;6.20;99.90;;;;;;5033463;28;20179;-67
2021/03/05 05:23:57;;;;;;;24.57;15.07;;;6.20;99.90;;;;;;5032847;28;20175;-68
2021/03/05 05:26:22;;;;;;;21.83;14.10;;;6.20;99.90;;;;;;5033087;28;20172;-65
2021/03/05 05:28:48;;;;;;;26.67;15.70;;;6.30;99.90;;;;;;5032929;28;20920;-67
2021/03/05 05:31:13;;;;;;;24.83;15.43;;;6.30;99.90;;;;;;5032569;28;20180;-66
2021/03/05 05:33:39;;;;;;;21.73;14.73;;;6.20;99.90;;;;;;5032897;28;20198;-67
2021/03/05 05:36:05;;;;;;;25.90;14.57;;;6.20;99.90;;;;;;5032758;28;20184;-66
2021/03/05 05:38:31;;;;;;;21.70;13.63;;;6.20;99.90;;;;;;5032682;28;20222;-67
2021/03/05 05:41:03;;;;;;;22.50;14.43;;;6.10;99.90;;;;;;5032721;28;20219;-66
2021/03/05 05:43:31;;;;;;;21.03;14.07;;;6.10;99.90;;;;;;5032714;28;20807;-67
2021/03/05 05:46:04;;;;;;;20.90;14.50;;;6.00;99.90;;;;;;5032454;28;20411;-68
2021/03/05 05:48:31;;;;;;;23.23;14.03;;;6.00;99.90;;;;;;5032860;28;20441;-65
2021/03/05 05:50:58;;;;;;;22.20;14.10;;;5.90;99.90;;;;;;5032269;28;20612;-67
2021/03/05 05:53:30;;;;;;;21.50;13.87;;;5.80;99.90;;;;;;5032080;28;20410;-67
2021/03/05 05:55:56;;;;;;;21.73;14.93;;;5.80;99.90;;;;;;5032267;28;20418;-68
2021/03/05 05:58:22;;;;;;;22.10;15.07;;;5.90;99.90;;;;;;5031854;28;20466;-67
2021/03/05 06:00:48;;;;;;;22.20;15.10;;;5.90;99.90;;;;;;5032266;28;20410;-66
2021/03/05 06:03:15;;;;;;;24.83;14.53;;;5.90;99.90;;;;;;5032077;28;20172;-67
2021/03/05 06:05:41;;;;;;;22.30;14.93;;;5.90;99.90;;;;;;5032127;28;20555;-66
2021/03/05 06:08:07;;;;;;;24.23;15.03;;;5.80;99.90;;;;;;5031963;28;20438;-67
2021/03/05 06:10:33;;;;;;;22.27;14.77;;;5.80;99.90;;;;;;5032089;28;20196;-67
2021/03/05 06:12:58;;;;;;;21.80;14.00;;;5.90;99.90;;;;;;5032007;28;20437;-68
2021/03/05 06:15:28;;;;;;;22.30;14.80;;;5.90;99.90;;;;;;5031795;28;20183;-67
2021/03/05 06:17:53;;;;;;;24.73;15.57;;;5.90;99.90;;;;;;5031456;28;20207;-67
2021/03/05 06:20:19;;;;;;;24.07;15.17;;;5.90;99.90;;;;;;5031716;28;20411;-68
2021/03/05 06:22:47;;;;;;;23.43;15.00;;;5.90;99.90;;;;;;5031524;28;20202;-68
2021/03/05 06:25:32;;;;;;;21.87;14.47;;;5.90;99.90;;;;;;5031567;28;20179;-67
2021/03/05 06:27:58;;;;;;;22.87;13.87;;;5.90;99.90;;;;;;5031668;28;20426;-69
2021/03/05 06:30:30;;;;;;;23.53;14.47;;;5.90;99.90;;;;;;5031546;28;20418;-67
2021/03/05 06:32:55;;;;;;;23.77;14.30;;;5.90;99.90;;;;;;5031341;28;20222;-67
2021/03/05 06:35:24;;;;;;;24.17;14.87;;;5.80;99.90;;;;;;5031506;28;20446;-68
2021/03/05 06:37:49;;;;;;;25.43;14.00;;;5.80;99.90;;;;;;5031025;28;20175;-67
2021/03/05 06:40:15;;;;;;;23.77;14.33;;;5.80;99.90;;;;;;5030855;28;20437;-68
2021/03/05 06:42:52;;;;;;;21.13;13.50;;;5.80;99.90;;;;;;5031078;28;20183;-68
2021/03/05 06:45:20;;;;;;;21.00;13.27;;;5.80;99.90;;;;;;5031311;28;20418;-68
2021/03/05 06:48:05;;;;;;;20.37;13.23;;;5.80;99.90;;;;;;5030878;28;20415;-68
2021/03/05 06:50:38;;;;;;;18.33;12.40;;;5.70;99.90;;;;;;5031287;28;20899;-68
2021/03/05 06:53:21;;;;;;;21.47;13.70;;;5.80;99.90;;;;;;5013694;28;20796;-67
2021/03/05 06:55:46;;;;;;;19.50;12.40;;;5.70;99.90;;;;;;5031197;28;20771;-67
2021/03/05 06:58:12;;;;;;;19.67;12.27;;;5.70;99.90;;;;;;5031201;28;20476;-68
2021/03/05 07:00:38;;;;;;;16.03;10.93;;;5.70;99.90;;;;;;5031065;28;20188;-67
2021/03/05 07:03:18;;;;;;;16.43;11.20;;;5.70;99.90;;;;;;5030912;28;20660;-66
2021/03/05 07:05:53;;;;;;;16.47;10.90;;;5.80;99.90;;;;;;5030940;28;20175;-67
2021/03/05 07:08:39;;;;;;;21.93;11.23;;;5.70;99.90;;;;;;5030563;28;20418;-66
2021/03/05 07:11:08;;;;;;;20.57;12.30;;;5.80;99.90;;;;;;5030524;28;20407;-66
2021/03/05 07:13:54;;;;;;;20.77;12.47;;;5.80;99.90;;;;;;5030908;28;20514;-67
2021/03/05 07:16:20;;;;;;;17.03;11.40;;;5.80;99.90;;;;;;5030560;28;20454;-66
2021/03/05 07:18:46;;;;;;;16.93;12.07;;;5.80;99.90;;;;;;5030859;28;20500;-68
2021/03/05 07:21:17;;;;;;;17.70;10.73;;;5.80;99.90;;;;;;5030561;28;20210;-67
2021/03/05 07:23:44;;;;;;;12.93;9.57;;;5.80;99.90;;;;;;5030709;28;20422;-69
2021/03/05 07:26:11;;;;;;;22.30;10.90;;;5.70;99.90;;;;;;5030712;28;20897;-66
2021/03/05 07:28:41;;;;;;;16.47;10.07;;;5.70;99.90;;;;;;5030980;28;20448;-66
2021/03/05 07:31:08;;;;;;;16.50;10.07;;;5.80;99.90;;;;;;5030577;28;20471;-65
2021/03/05 07:33:38;;;;;;;15.50;9.20;;;5.70;99.90;;;;;;5030562;28;20414;-68
2021/03/05 07:36:08;;;;;;;15.43;10.10;;;5.80;99.90;;;;;;5030653;28;20423;-66
2021/03/05 07:38:39;;;;;;;16.00;9.63;;;5.80;99.90;;;;;;5030460;28;20458;-66
2021/03/05 07:41:06;;;;;;;19.27;9.20;;;5.80;99.90;;;;;;5030839;28;20784;-66
2021/03/05 07:43:32;;;;;;;14.03;8.90;;;5.80;99.90;;;;;;5030111;28;20431;-68
2021/03/05 07:45:59;;;;;;;12.87;9.00;;;5.80;99.90;;;;;;5030926;28;20416;-68
2021/03/05 07:48:25;;;;;;;11.70;8.33;;;5.80;99.90;;;;;;5030200;28;20183;-67
2021/03/05 07:50:50;;;;;;;13.93;8.67;;;5.80;99.90;;;;;;5030105;28;20434;-67
2021/03/05 07:53:16;;;;;;;12.87;7.30;;;5.80;99.90;;;;;;5030765;28;20611;-68
2021/03/05 07:55:43;;;;;;;12.60;8.67;;;5.70;99.90;;;;;;5030781;28;20245;-66
2021/03/05 07:58:09;;;;;;;12.40;7.77;;;5.70;99.90;;;;;;5031089;28;20192;-67
2021/03/05 08:00:50;;;;;;;13.97;7.97;;;5.70;99.90;;;;;;5030562;28;20414;-68
2021/03/05 08:03:18;;;;;;;10.50;7.30;;;5.80;99.90;;;;;;5030693;28;20453;-67
2021/03/05 08:05:46;;;;;;;12.00;7.00;;;5.80;99.90;;;;;;5030588;28;20411;-66
2021/03/05 08:08:22;;;;;;;10.37;6.77;;;5.90;99.90;;;;;;5030905;28;20900;-67
2021/03/05 08:10:51;;;;;;;10.50;6.67;;;5.90;99.90;;;;;;5030548;28;20441;-68
2021/03/05 08:16:26;;;;;;;10.70;6.10;;;6.10;99.90;;;;;;5032521;28;20445;-68
2021/03/05 08:19:14;;;;;;;10.97;6.70;;;6.00;99.90;;;;;;5033205;28;20445;-66
2021/03/05 08:21:51;;;;;;;12.63;6.80;;;6.00;99.90;;;;;;5021933;28;20481;-66
2021/03/05 08:24:40;;;;;;;14.43;7.17;;;6.10;99.90;;;;;;5034619;28;20411;-66
2021/03/05 08:27:17;;;;;;;13.43;6.87;;;6.10;99.90;;;;;;5034340;28;20425;-68
2021/03/05 08:29:53;;;;;;;8.57;5.80;;;6.10;99.90;;;;;;5034646;28;20776;-66
2021/03/05 08:32:31;;;;;;;13.60;6.30;;;6.20;99.90;;;;;;5033816;28;20774;-68
2021/03/05 08:34:57;;;;;;;9.97;6.47;;;6.20;99.90;;;;;;5032898;28;20928;-67
2021/03/05 08:37:28;;;;;;;10.97;6.43;;;6.20;99.90;;;;;;5034137;28;20514;-67
2021/03/05 08:40:14;;;;;;;11.97;7.03;;;6.30;99.90;;;;;;5034183;28;20457;-66
2021/03/05 08:42:49;;;;;;;9.27;7.07;;;6.40;99.90;;;;;;5034389;28;20450;-67
2021/03/05 08:45:17;;;;;;;10.90;6.43;;;6.40;99.90;;;;;;5034221;28;20414;-67
2021/03/05 08:47:53;;;;;;;13.77;7.90;;;6.40;99.90;;;;;;5034061;28;20414;-67
2021/03/05 08:50:22;;;;;;;10.63;6.80;;;6.40;99.90;;;;;;5034038;28;20419;-68
2021/03/05 08:52:50;;;;;;;11.07;6.80;;;6.50;99.90;;;;;;5034358;28;20510;-67
2021/03/05 08:55:17;;;;;;;11.40;6.80;;;6.50;99.90;;;;;;5033885;28;20411;-69
2021/03/05 08:57:52;;;;;;;12.90;7.20;;;6.60;99.90;;;;;;5016244;28;20430;-65
2021/03/05 09:00:19;;;;;;;12.57;7.13;;;6.70;99.90;;;;;;5033969;28;20460;-68
2021/03/05 09:02:48;;;;;;;12.17;7.00;;;6.60;99.90;;;;;;5034197;28;20402;-67
2021/03/05 09:05:25;;;;;;;12.40;7.03;;;6.70;99.90;;;;;;5032592;28;20780;-68
2021/03/05 09:07:53;;;;;;;12.07;6.87;;;6.70;99.90;;;;;;5033804;28;20446;-68
2021/03/05 09:10:20;;;;;;;13.60;7.23;;;6.60;99.90;;;;;;5033581;28;20414;-66
2021/03/05 09:12:57;;;;;;;12.00;7.00;;;6.70;99.90;;;;;;5034176;28;20414;-67
2021/03/05 09:15:27;;;;;;;11.03;7.07;;;6.70;99.90;;;;;;5033484;28;20414;-68
2021/03/05 09:17:53;;;;;;;12.53;7.57;;;6.80;99.90;;;;;;5033527;28;20399;-66
2021/03/05 09:20:19;;;;;;;15.10;7.97;;;6.90;99.90;;;;;;5033993;28;20418;-68
2021/03/05 09:22:45;;;;;;;11.83;7.70;;;6.90;99.90;;;;;;5033495;28;20422;-69
2021/03/05 09:25:11;;;;;;;11.37;6.90;;;6.90;99.90;;;;;;5033460;28;20175;-67
2021/03/05 09:27:45;;;;;;;10.63;7.50;;;6.90;99.90;;;;;;5032946;28;20176;-68
2021/03/05 09:30:19;;;;;;;13.07;7.20;;;6.90;99.90;;;;;;5032495;28;20414;-66
2021/03/05 09:32:50;;;;;;;13.77;7.47;;;6.90;99.90;;;;;;5032596;28;20417;-68
2021/03/05 09:35:16;;;;;;;13.03;7.57;;;7.00;99.90;;;;;;5032815;28;20624;-68
2021/03/05 09:37:42;;;;;;;14.53;8.77;;;7.00;99.90;;;;;;5032833;28;20465;-66
2021/03/05 09:40:09;;;;;;;21.63;9.10;;;7.10;99.90;;;;;;5032591;28;20442;-68
2021/03/05 09:42:50;;;;;;;13.13;8.17;;;7.20;99.90;;;;;;5033225;28;20674;-67
2021/03/05 09:45:34;;;;;;;14.07;7.37;;;7.20;99.90;;;;;;5032922;28;20423;-66
2021/03/05 09:48:00;;;;;;;16.03;9.37;;;7.10;99.90;;;;;;5032430;28;20417;-65
2021/03/05 09:50:26;;;;;;;13.00;8.40;;;7.10;99.90;;;;;;5032675;28;20415;-67
2021/03/05 09:52:53;;;;;;;18.07;8.63;;;7.10;99.90;;;;;;5032554;28;20415;-66
2021/03/05 09:55:27;;;;;;;18.33;9.13;;;7.20;99.90;;;;;;5032471;28;20434;-68
2021/03/05 09:57:54;;;;;;;18.07;9.17;;;7.10;99.90;;;;;;5032166;28;20888;-67
2021/03/05 10:00:30;;;;;;;24.97;10.13;;;7.20;99.90;;;;;;5032407;28;20514;-68
2021/03/05 10:03:07;;;;;;;15.20;8.53;;;7.20;99.90;;;;;;5032459;28;20410;-68
2021/03/05 10:05:35;;;;;;;17.67;9.00;;;7.30;99.90;;;;;;5032315;28;20559;-67
2021/03/05 10:08:14;;;;;;;16.97;9.47;;;7.30;99.90;;;;;;5032234;28;20410;-66
2021/03/05 10:11:09;;;;;;;17.17;8.87;;;7.30;99.90;;;;;;5032187;28;20489;-65
2021/03/05 10:13:55;;;;;;;15.40;8.53;;;7.10;99.90;;;;;;5032164;28;20869;-67
2021/03/05 10:16:25;;;;;;;19.33;8.87;;;7.00;99.90;;;;;;5032025;28;20413;-68
2021/03/05 10:18:55;;;;;;;16.63;9.47;;;7.00;99.90;;;;;;5031927;28;20454;-66
2021/03/05 10:21:22;;;;;;;15.10;8.90;;;6.90;99.90;;;;;;5032069;28;20501;-66
2021/03/05 10:23:48;;;;;;;18.70;9.53;;;6.80;99.90;;;;;;5032182;28;20417;-67
2021/03/05 10:26:17;;;;;;;18.30;9.90;;;6.90;99.90;;;;;;5031785;28;20415;-69
2021/03/05 10:28:44;;;;;;;16.80;9.43;;;7.00;99.90;;;;;;5031734;28;20421;-68
2021/03/05 10:31:10;;;;;;;14.80;8.60;;;7.00;99.90;;;;;;5031598;28;20415;-68
2021/03/05 10:33:44;;;;;;;15.90;9.20;;;7.00;99.90;;;;;;5031684;28;20986;-66
2021/03/05 10:36:13;;;;;;;16.63;9.07;;;7.10;99.90;;;;;;5031777;28;20179;-68
2021/03/05 10:38:40;;;;;;;17.90;9.90;;;7.20;99.90;;;;;;5030358;28;20457;-67
2021/03/05 10:41:06;;;;;;;13.93;9.07;;;7.30;99.90;;;;;;5033351;28;20454;-67
2021/03/05 10:43:37;;;;;;;15.73;10.00;;;7.40;99.90;;;;;;5050910;28;20418;-67
2021/03/05 10:46:04;;;;;;;14.10;7.97;;;7.50;99.90;;;;;;5051375;28;20417;-67
2021/03/05 10:48:29;;;;;;;18.43;9.50;;;7.50;99.90;;;;;;5051264;28;20934;-67
2021/03/05 10:50:55;;;;;;;16.60;10.70;;;7.60;99.90;;;;;;5051347;28;20504;-68
2021/03/05 10:53:21;;;;;;;15.93;9.60;;;7.70;99.90;;;;;;5051361;28;20266;-66
2021/03/05 10:55:46;;;;;;;17.93;8.93;;;7.70;99.90;;;;;;5050935;28;20622;-66
2021/03/05 10:58:12;;;;;;;17.07;9.13;;;7.70;99.90;;;;;;5050997;28;20195;-67
2021/03/05 11:00:38;;;;;;;15.50;9.00;;;7.80;99.90;;;;;;5032937;28;20186;-66
2021/03/05 11:03:04;;;;;;;16.90;8.63;;;7.80;99.90;;;;;;5049862;28;20572;-67
2021/03/05 11:05:30;;;;;;;21.20;9.00;;;7.90;99.90;;;;;;5051194;28;20258;-68
2021/03/05 11:07:55;;;;;;;15.00;9.13;;;7.80;99.90;;;;;;5050791;28;20508;-68
2021/03/05 11:10:22;;;;;;;14.10;8.83;;;7.70;99.90;;;;;;5051058;28;20572;-67
2021/03/05 11:12:48;;;;;;;12.70;8.60;;;7.70;99.90;;;;;;5050388;28;20179;-69
2021/03/05 11:15:15;;;;;;;12.20;8.57;;;7.70;99.90;;;;;;5050833;28;20417;-67
2021/03/05 11:17:41;;;;;;;14.43;8.30;;;7.70;99.90;;;;;;5050696;28;20410;-67
2021/03/05 11:20:07;;;;;;;17.13;9.37;;;7.80;99.90;;;;;;5039811;28;20458;-68
2021/03/05 11:22:33;;;;;;;14.03;7.93;;;7.70;99.90;;;;;;5030856;28;20422;-65
2021/03/05 11:24:59;;;;;;;16.30;8.20;;;7.80;99.90;;;;;;5030842;28;20422;-68
2021/03/05 11:27:25;;;;;;;11.83;8.03;;;7.80;99.90;;;;;;5034903;28;20801;-69
2021/03/05 11:29:50;;;;;;;9.93;7.43;;;8.00;99.50;;;;;;5050397;28;20182;-67
2021/03/05 11:32:16;;;;;;;12.00;6.73;;;8.00;99.90;;;;;;5050448;28;20608;-68
2021/03/05 11:34:43;;;;;;;9.23;7.27;;;8.10;98.00;;;;;;5050404;28;20179;-68
2021/03/05 11:37:08;;;;;;;12.13;7.27;;;8.00;96.40;;;;;;5050303;28;20205;-68
2021/03/05 11:39:34;;;;;;;9.80;6.90;;;8.10;97.80;;;;;;5050777;28;20454;-68
2021/03/05 11:41:59;;;;;;;12.40;7.07;;;8.10;96.10;;;;;;5050020;28;20234;-67
2021/03/05 11:44:27;;;;;;;10.00;7.80;;;8.10;98.00;;;;;;5050953;28;20671;-69
2021/03/05 11:46:52;;;;;;;13.00;8.60;;;8.20;96.90;;;;;;5050916;28;20168;-68
2021/03/05 11:49:18;;;;;;;11.07;8.50;;;8.20;95.50;;;;;;5034451;28;20429;-68
2021/03/05 11:51:44;;;;;;;10.47;8.77;;;8.20;96.20;;;;;;5043105;28;20692;-65
2021/03/05 11:54:09;;;;;;;11.23;9.10;;;8.30;97.60;;;;;;5036966;28;20201;-67
2021/03/05 11:56:36;;;;;;;12.27;10.00;;;8.40;98.90;;;;;;5051000;28;20479;-67
2021/03/05 11:59:01;;;;;;;15.30;10.63;;;8.50;97.90;;;;;;5050411;28;20237;-68
2021/03/05 12:01:28;;;;;;;12.17;9.83;;;8.60;97.40;;;;;;5050815;28;20441;-66
2021/03/05 12:03:53;;;;;;;12.83;9.93;;;8.70;96.80;;;;;;5050858;28;20698;-68
2021/03/05 12:06:19;;;;;;;13.50;9.70;;;8.80;96.80;;;;;;5032762;28;20500;-69
2021/03/05 12:08:45;;;;;;;11.63;8.97;;;8.80;94.50;;;;;;5050837;28;20523;-67
2021/03/05 12:11:10;;;;;;;9.93;8.27;;;8.80;95.20;;;;;;5032616;28;20261;-68
2021/03/05 12:13:36;;;;;;;13.27;9.97;;;8.80;95.50;;;;;;5044594;28;20203;-67
2021/03/05 12:16:01;;;;;;;11.33;8.70;;;8.70;95.80;;;;;;5030873;28;20188;-67
2021/03/05 12:18:27;;;;;;;12.93;9.60;;;8.70;93.10;;;;;;5051016;28;20547;-68
2021/03/05 12:20:53;;;;;;;14.17;9.60;;;8.60;95.30;;;;;;5050674;28;20192;-67
2021/03/05 12:23:18;;;;;;;14.77;10.00;;;8.70;96.20;;;;;;5050594;28;20622;-68
2021/03/05 12:25:44;;;;;;;15.43;11.20;;;8.70;96.70;;;;;;5039977;28;20179;-67
2021/03/05 12:28:09;;;;;;;13.07;9.57;;;8.70;94.50;;;;;;5030500;28;20255;-67
2021/03/05 12:30:35;;;;;;;13.20;9.53;;;8.70;96.00;;;;;;5030368;28;20503;-69
2021/03/05 12:33:01;;;;;;;13.17;9.47;;;8.80;96.80;;;;;;5031289;28;20260;-67
2021/03/05 12:35:26;;;;;;;12.93;8.20;;;8.90;95.00;;;;;;5050064;28;20698;-68
2021/03/05 12:37:52;;;;;;;12.60;8.70;;;8.80;95.20;;;;;;5050263;28;20179;-65
2021/03/05 12:40:19;;;;;;;10.80;8.73;;;8.80;96.90;;;;;;5049990;28;20584;-68
2021/03/05 12:42:44;;;;;;;14.40;9.10;;;8.70;95.90;;;;;;5033397;28;20694;-68
2021/03/05 12:45:11;;;;;;;13.87;9.10;;;8.70;95.10;;;;;;5031184;28;20465;-67
2021/03/05 12:47:37;;;;;;;11.43;8.50;;;8.70;96.20;;;;;;5050332;28;20179;-67
2021/03/05 12:50:04;;;;;;;14.43;9.20;;;8.70;93.80;;;;;;5031970;28;20816;-67